createdAt,value
2018-04-11T00:00:01.546Z,79.47
2018-04-11T00:02:29.072Z,80.67
2018-04-11T00:04:56.549Z,81.54
2018-04-11T00:07:24.037Z,79.95
2018-04-11T00:09:51.572Z,80.84
2018-04-11T00:12:19.077Z,80.60
2018-04-11T00:14:46.553Z,81.62
2018-04-11T00:17:14.072Z,82.33
2018-04-11T00:19:41.564Z,83.98
2018-04-11T00:22:09.037Z,84.56
2018-04-11T00:24:36.558Z,84.51
2018-04-11T00:27:04.061Z,86.32
2018-04-11T00:29:31.541Z,86.85
2018-04-11T00:31:59.049Z,86.84
2018-04-11T00:34:26.561Z,87.27
2018-04-11T00:36:54.032Z,86.68
2018-04-11T00:39:21.565Z,87.14
2018-04-11T00:41:49.053Z,86.19
2018-04-11T00:44:16.581Z,84.79
2018-04-11T00:46:44.101Z,83.08
2018-04-11T00:49:11.605Z,84.19
2018-04-11T00:51:39.120Z,80.69
2018-04-11T00:54:06.777Z,83.59
2018-04-11T00:56:34.252Z,83.27
2018-04-11T00:59:01.733Z,84.98
2018-04-11T01:01:29.234Z,84.75
2018-04-11T01:03:56.720Z,84.60
2018-04-11T01:06:24.553Z,85.40
2018-04-11T01:08:52.065Z,85.66
2018-04-11T01:11:19.541Z,86.26
2018-04-11T01:13:47.051Z,85.06
2018-04-11T01:16:14.529Z,86.00
2018-04-11T01:18:42.289Z,85.63
2018-04-11T01:21:09.769Z,86.23
2018-04-11T01:23:37.241Z,86.91
2018-04-11T01:26:04.829Z,86.73
2018-04-11T01:28:32.313Z,87.18
2018-04-11T01:31:00.160Z,87.35
2018-04-11T01:33:27.641Z,88.33
2018-04-11T01:35:55.129Z,88.31
2018-04-11T01:38:22.634Z,88.67
2018-04-11T01:40:50.113Z,88.62
2018-04-11T01:43:17.621Z,87.90
2018-04-11T01:45:45.102Z,87.42
2018-04-11T01:48:12.585Z,87.50
2018-04-11T01:50:40.091Z,85.55
2018-04-11T01:53:07.570Z,87.41
2018-04-11T01:55:35.450Z,87.64
2018-04-11T01:58:02.950Z,88.21
2018-04-11T02:00:30.453Z,88.42
2018-04-11T02:02:57.989Z,88.62
2018-04-11T02:05:25.472Z,88.76
2018-04-11T02:07:53.225Z,87.85
2018-04-11T02:10:20.728Z,87.13
2018-04-11T02:12:48.228Z,87.21
2018-04-11T02:15:15.769Z,86.85
2018-04-11T02:17:43.250Z,87.78
2018-04-11T02:20:10.770Z,86.74
2018-04-11T02:22:38.248Z,86.57
2018-04-11T02:25:05.753Z,87.68
2018-04-11T02:27:33.277Z,87.66
2018-04-11T02:30:00.777Z,87.76
2018-04-11T02:32:28.638Z,88.05
2018-04-11T02:34:56.129Z,88.62
2018-04-11T02:37:23.605Z,88.51
2018-04-11T02:39:51.126Z,88.48
2018-04-11T02:42:18.601Z,89.02
2018-04-11T02:44:46.321Z,89.45
2018-04-11T02:47:13.851Z,90.30
2018-04-11T02:49:41.297Z,90.39
2018-04-11T02:52:08.821Z,90.37
2018-04-11T02:54:36.324Z,88.83
2018-04-11T02:57:04.041Z,87.16
2018-04-11T02:59:31.529Z,87.48
2018-04-11T03:01:59.002Z,87.06
2018-04-11T03:04:27.456Z,86.81
2018-04-11T03:06:54.933Z,86.71
2018-04-11T03:09:22.531Z,87.00
2018-04-11T03:11:49.978Z,85.97
2018-04-11T03:14:17.466Z,85.87
2018-04-11T03:16:44.969Z,85.75
2018-04-11T03:19:12.445Z,85.81
2018-04-11T03:21:40.397Z,86.18
2018-04-11T03:24:08.121Z,85.87
2018-04-11T03:26:35.601Z,85.25
2018-04-11T03:29:03.101Z,85.57
2018-04-11T03:31:30.626Z,85.38
2018-04-11T03:33:58.151Z,84.91
2018-04-11T03:36:27.285Z,84.87
2018-04-11T03:38:54.765Z,84.85
2018-04-11T03:41:22.268Z,85.11
2018-04-11T03:43:49.760Z,84.46
2018-04-11T03:46:17.425Z,84.29
2018-04-11T03:48:44.900Z,85.50
2018-04-11T03:51:12.381Z,85.34
2018-04-11T03:53:39.881Z,85.52
2018-04-11T03:56:07.361Z,84.77
2018-04-11T03:58:34.880Z,85.23
2018-04-11T04:01:02.378Z,85.63
2018-04-11T04:03:29.865Z,86.83
2018-04-11T04:05:57.387Z,87.94
2018-04-11T04:08:24.898Z,88.08
2018-04-11T04:10:52.529Z,88.05
2018-04-11T04:16:31.108Z,88.64
2018-04-11T04:19:10.445Z,87.66
2018-04-11T04:21:38.222Z,87.52
2018-04-11T04:24:05.700Z,87.54
2018-04-11T04:26:33.173Z,87.65
2018-04-11T04:29:00.681Z,88.36
2018-04-11T04:31:28.157Z,88.34
2018-04-11T04:33:55.685Z,88.28
2018-04-11T04:36:23.181Z,88.47
2018-04-11T04:38:50.652Z,88.44
2018-04-11T04:41:18.160Z,88.51
2018-04-11T04:43:45.642Z,88.73
2018-04-11T04:46:13.502Z,88.66
2018-04-11T04:48:40.984Z,88.73
2018-04-11T04:51:08.503Z,89.14
2018-04-11T04:53:36.030Z,89.34
2018-04-11T04:56:03.506Z,89.25
2018-04-11T04:58:31.029Z,89.95
2018-04-11T05:00:58.549Z,89.82
2018-04-11T05:03:26.040Z,90.18
2018-04-11T05:05:53.561Z,90.28
2018-04-11T05:08:21.033Z,89.53
2018-04-11T05:10:48.738Z,89.74
2018-04-11T05:13:16.233Z,89.80
2018-04-11T05:15:43.721Z,89.83
2018-04-11T05:18:11.230Z,90.18
2018-04-11T05:20:38.728Z,89.87
2018-04-11T05:23:06.393Z,89.48
2018-04-11T05:25:33.880Z,89.78
2018-04-11T05:28:01.357Z,90.38
2018-04-11T05:30:28.882Z,89.88
2018-04-11T05:32:56.395Z,89.83
2018-04-11T05:35:24.172Z,89.79
2018-04-11T05:37:51.648Z,89.85
2018-04-11T05:40:19.135Z,89.64
2018-04-11T05:42:46.794Z,89.65
2018-04-11T05:45:14.269Z,89.13
2018-04-11T05:47:41.904Z,88.78
2018-04-11T05:50:09.390Z,89.05
2018-04-11T05:52:36.879Z,88.29
2018-04-11T05:55:04.384Z,87.78
2018-04-11T05:57:31.862Z,87.10
2018-04-11T05:59:59.574Z,87.29
2018-04-11T06:02:27.078Z,87.58
2018-04-11T06:04:54.573Z,86.56
2018-04-11T06:07:22.073Z,87.11
2018-04-11T06:09:49.601Z,85.83
2018-04-11T06:12:17.130Z,85.93
2018-04-11T06:14:44.609Z,86.42
2018-04-11T06:17:12.122Z,85.98
2018-04-11T06:19:39.657Z,86.29
2018-04-11T06:22:07.145Z,85.80
2018-04-11T06:24:34.781Z,85.83
2018-04-11T06:27:02.265Z,86.24
2018-04-11T06:29:29.763Z,86.10
2018-04-11T06:31:57.272Z,86.36
2018-04-11T06:34:24.802Z,86.00
2018-04-11T06:36:52.349Z,85.86
2018-04-11T06:39:19.861Z,85.51
2018-04-11T06:41:47.345Z,85.86
2018-04-11T06:44:14.849Z,84.74
2018-04-11T06:46:42.345Z,85.34
2018-04-11T06:49:10.289Z,84.22
2018-04-11T06:51:37.789Z,84.10
2018-04-11T06:54:05.309Z,83.23
2018-04-11T06:56:32.813Z,81.88
2018-04-11T06:59:00.289Z,81.87
2018-04-11T07:01:28.021Z,82.66
2018-04-11T07:03:55.512Z,82.84
2018-04-11T07:06:22.997Z,82.64
2018-04-11T07:08:50.513Z,83.23
2018-04-11T07:11:18.021Z,82.18
2018-04-11T07:13:45.678Z,82.88
2018-04-11T07:16:13.161Z,81.44
2018-04-11T07:18:40.647Z,80.12
2018-04-11T07:21:08.158Z,80.05
2018-04-11T07:23:35.634Z,80.05
2018-04-11T07:26:03.463Z,80.83
2018-04-11T07:28:31.142Z,80.19
2018-04-11T07:30:58.617Z,80.54
2018-04-11T07:33:26.196Z,80.70
2018-04-11T07:35:53.669Z,80.20
2018-04-11T07:38:21.192Z,78.45
2018-04-11T07:40:48.665Z,79.50
2018-04-11T07:43:16.141Z,77.89
2018-04-11T07:45:43.645Z,78.33
2018-04-11T07:48:11.125Z,79.13
2018-04-11T07:50:38.841Z,78.27
2018-04-11T07:53:06.336Z,77.24
2018-04-11T07:55:33.815Z,77.57
2018-04-11T07:58:01.329Z,78.70
2018-04-11T08:00:28.817Z,78.47
2018-04-11T08:02:56.524Z,77.01
2018-04-11T08:05:24.041Z,77.19
2018-04-11T08:07:51.538Z,77.70
2018-04-11T08:10:19.041Z,78.68
2018-04-11T08:12:46.555Z,79.20
2018-04-11T08:15:14.493Z,77.79
2018-04-11T08:17:41.994Z,78.32
2018-04-11T08:20:09.487Z,77.11
2018-04-11T08:22:37.189Z,78.30
2018-04-11T08:25:04.679Z,77.43
2018-04-11T08:27:32.353Z,76.36
2018-04-11T08:29:59.824Z,76.73
2018-04-11T08:32:27.309Z,76.54
2018-04-11T08:34:54.810Z,77.77
2018-04-11T08:37:22.317Z,76.94
2018-04-11T08:39:49.844Z,75.07
2018-04-11T08:42:17.334Z,77.33
2018-04-11T08:44:44.828Z,76.18
2018-04-11T08:47:12.729Z,75.35
2018-04-11T08:49:40.213Z,75.00
2018-04-11T08:52:08.126Z,74.06
2018-04-11T08:54:35.618Z,74.91
2018-04-11T08:57:03.116Z,73.67
2018-04-11T08:59:30.613Z,73.31
2018-04-11T09:01:58.097Z,72.44
2018-04-11T09:04:25.937Z,72.87
2018-04-11T09:06:53.553Z,72.59
2018-04-11T09:09:21.037Z,71.22
2018-04-11T09:11:48.548Z,70.33
2018-04-11T09:14:16.020Z,71.09
2018-04-11T09:16:43.793Z,69.35
2018-04-11T09:19:11.308Z,72.05
2018-04-11T09:21:38.786Z,70.63
2018-04-11T09:24:06.288Z,68.69
2018-04-11T09:26:33.800Z,70.41
2018-04-11T09:29:01.449Z,70.70
2018-04-11T09:31:28.943Z,70.27
2018-04-11T09:33:56.420Z,69.46
2018-04-11T09:36:23.934Z,69.19
2018-04-11T09:38:51.436Z,70.71
2018-04-11T09:41:19.111Z,70.29
2018-04-11T09:43:46.613Z,67.69
2018-04-11T09:46:14.094Z,68.69
2018-04-11T09:48:41.621Z,69.09
2018-04-11T09:51:09.109Z,69.47
2018-04-11T09:53:36.633Z,70.47
2018-04-11T09:56:04.113Z,70.90
2018-04-11T09:58:31.609Z,70.58
2018-04-11T10:00:59.116Z,69.42
2018-04-11T10:03:26.589Z,69.12
2018-04-11T10:05:54.328Z,69.04
2018-04-11T10:08:21.810Z,68.33
2018-04-11T10:10:49.290Z,67.74
2018-04-11T10:13:16.793Z,66.95
2018-04-11T10:15:44.273Z,66.80
2018-04-11T10:18:11.797Z,64.77
2018-04-11T10:20:39.295Z,65.16
2018-04-11T10:23:06.816Z,64.83
2018-04-11T10:25:34.324Z,64.03
2018-04-11T10:28:01.821Z,65.26
2018-04-11T10:30:29.341Z,64.57
2018-04-11T10:32:56.829Z,60.72
2018-04-11T10:35:24.335Z,60.96
2018-04-11T10:37:51.837Z,59.60
2018-04-11T10:40:19.337Z,57.08
2018-04-11T10:42:46.992Z,59.20
2018-04-11T10:45:14.489Z,57.15
2018-04-11T10:47:41.976Z,57.93
2018-04-11T10:50:09.793Z,58.27
2018-04-11T10:52:37.271Z,57.15
2018-04-11T10:55:04.941Z,58.14
2018-04-11T10:57:32.426Z,56.77
2018-04-11T10:59:59.904Z,56.22
2018-04-11T11:02:27.439Z,57.03
2018-04-11T11:04:54.925Z,56.60
2018-04-11T11:07:22.609Z,57.66
2018-04-11T11:09:50.100Z,60.29
2018-04-11T11:12:17.589Z,60.87
2018-04-11T11:14:45.097Z,61.13
2018-04-11T11:17:12.579Z,59.67
2018-04-11T11:19:51.855Z,59.66
2018-04-11T11:22:19.333Z,57.93
2018-04-11T11:24:46.821Z,55.59
2018-04-11T11:27:14.629Z,53.14
2018-04-11T11:29:42.109Z,55.14
2018-04-11T11:32:09.983Z,55.58
2018-04-11T11:34:37.477Z,55.53
2018-04-11T11:37:07.081Z,55.81
2018-04-11T11:39:34.610Z,54.92
2018-04-11T11:42:02.099Z,54.88
2018-04-11T11:44:29.629Z,54.90
2018-04-11T11:46:57.109Z,52.25
2018-04-11T11:49:24.590Z,51.50
2018-04-11T11:51:52.121Z,51.55
2018-04-11T11:54:19.597Z,50.44
2018-04-11T11:56:47.243Z,51.30
2018-04-11T11:59:14.742Z,52.72
2018-04-11T12:01:42.225Z,52.86
2018-04-11T12:04:09.766Z,53.06
2018-04-11T12:06:37.265Z,50.83
2018-04-11T12:09:05.113Z,50.97
2018-04-11T12:11:32.594Z,52.96
2018-04-11T12:14:00.081Z,49.73
2018-04-11T12:16:27.595Z,52.05
2018-04-11T12:18:55.101Z,52.41
2018-04-11T12:21:22.689Z,52.42
2018-04-11T12:23:50.169Z,51.40
2018-04-11T12:26:17.645Z,50.23
2018-04-11T12:28:45.178Z,51.34
2018-04-11T12:31:12.681Z,52.47
2018-04-11T12:33:40.204Z,53.54
2018-04-11T12:36:07.681Z,52.10
2018-04-11T12:38:35.161Z,49.30
2018-04-11T12:41:02.680Z,50.54
2018-04-11T12:43:30.169Z,53.07
2018-04-11T12:45:57.730Z,53.69
2018-04-11T12:48:25.253Z,53.35
2018-04-11T12:50:52.774Z,52.45
2018-04-11T12:53:20.277Z,50.99
2018-04-11T12:55:47.791Z,51.25
2018-04-11T12:58:15.416Z,51.24
2018-04-11T13:00:42.920Z,51.42
2018-04-11T13:03:10.413Z,51.40
2018-04-11T13:05:37.941Z,50.74
2018-04-11T13:08:05.433Z,50.74
2018-04-11T13:10:32.969Z,50.99
2018-04-11T13:13:00.501Z,48.55
2018-04-11T13:15:27.985Z,48.63
2018-04-11T13:17:55.490Z,47.53
2018-04-11T13:20:22.970Z,49.44
2018-04-11T13:22:50.746Z,49.10
2018-04-11T13:25:18.225Z,48.27
2018-04-11T13:27:45.786Z,47.63
2018-04-11T13:30:13.369Z,46.39
2018-04-11T13:32:40.842Z,46.08
2018-04-11T13:35:08.697Z,45.27
2018-04-11T13:37:36.193Z,48.60
2018-04-11T13:40:03.700Z,46.98
2018-04-11T13:42:31.336Z,47.05
2018-04-11T13:44:59.248Z,47.16
2018-04-11T13:47:26.778Z,47.38
2018-04-11T13:49:54.297Z,45.91
2018-04-11T13:52:21.804Z,45.58
2018-04-11T13:54:49.320Z,45.50
2018-04-11T13:57:16.816Z,46.63
2018-04-11T13:59:44.325Z,45.69
2018-04-11T14:02:11.805Z,45.55
2018-04-11T14:04:39.541Z,45.97
2018-04-11T14:07:07.057Z,46.22
2018-04-11T14:09:34.737Z,47.43
2018-04-11T14:12:02.485Z,46.76
2018-04-11T14:14:29.992Z,44.90
2018-04-11T14:16:57.493Z,45.04
2018-04-11T14:19:25.008Z,44.32
2018-04-11T14:21:52.513Z,44.11
2018-04-11T14:24:20.140Z,43.88
2018-04-11T14:26:47.621Z,43.21
2018-04-11T14:29:15.107Z,43.72
2018-04-11T14:31:42.633Z,43.31
2018-04-11T14:34:10.150Z,43.70
2018-04-11T14:36:38.069Z,43.51
2018-04-11T14:39:06.369Z,42.34
2018-04-11T14:41:33.858Z,42.19
2018-04-11T14:44:01.371Z,41.62
2018-04-11T14:46:28.853Z,41.66
2018-04-11T14:48:56.364Z,41.83
2018-04-11T14:51:23.893Z,41.25
2018-04-11T14:53:51.374Z,39.78
2018-04-11T14:56:18.875Z,39.96
2018-04-11T14:58:46.417Z,40.73
2018-04-11T15:01:14.245Z,41.87
2018-04-11T15:03:41.766Z,42.59
2018-04-11T15:06:09.246Z,43.01
2018-04-11T15:08:36.787Z,43.73
2018-04-11T15:11:04.269Z,43.64
2018-04-11T15:13:31.905Z,42.86
2018-04-11T15:15:59.496Z,42.60
2018-04-11T15:18:26.964Z,41.42
2018-04-11T15:20:54.477Z,41.05
2018-04-11T15:23:22.012Z,43.25
2018-04-11T15:25:49.522Z,44.13
2018-04-11T15:28:17.040Z,43.77
2018-04-11T15:30:44.545Z,41.83
2018-04-11T15:33:12.061Z,43.17
2018-04-11T15:35:39.581Z,42.02
2018-04-11T15:38:07.424Z,42.44
2018-04-11T15:40:34.912Z,40.86
2018-04-11T15:43:02.514Z,41.75
2018-04-11T15:45:30.041Z,43.05
2018-04-11T15:47:57.556Z,42.03
2018-04-11T15:50:25.114Z,41.52
2018-04-11T15:52:52.636Z,41.73
2018-04-11T15:55:20.125Z,41.65
2018-04-11T15:57:47.642Z,43.14
2018-04-11T16:00:15.149Z,42.41
2018-04-11T16:02:42.674Z,42.40
2018-04-11T16:05:10.277Z,42.04
2018-04-11T16:07:37.837Z,40.82
2018-04-11T16:10:05.354Z,42.19
2018-04-11T16:12:33.144Z,42.67
2018-04-11T16:15:00.917Z,43.04
2018-04-11T16:17:28.417Z,43.87
2018-04-11T16:19:55.937Z,42.86
2018-04-11T16:22:23.451Z,43.54
2018-04-11T16:24:50.941Z,44.45
2018-04-11T16:27:18.841Z,45.27
2018-04-11T16:29:46.335Z,45.73
2018-04-11T16:32:13.814Z,45.37
2018-04-11T16:34:41.342Z,46.24
2018-04-11T16:37:08.848Z,47.43
2018-04-11T16:39:36.605Z,49.32
2018-04-11T16:42:04.118Z,48.84
2018-04-11T16:44:31.618Z,49.03
2018-04-11T16:46:59.119Z,49.92
2018-04-11T16:49:26.597Z,49.93
2018-04-11T16:51:54.361Z,51.13
2018-04-11T16:54:21.840Z,51.88
2018-04-11T16:56:49.329Z,51.92
2018-04-11T16:59:16.880Z,52.96
2018-04-11T17:01:44.365Z,52.79
2018-04-11T17:04:11.927Z,53.41
2018-04-11T17:06:39.409Z,53.95
2018-04-11T17:09:06.899Z,54.04
2018-04-11T17:11:34.431Z,54.67
2018-04-11T17:14:01.933Z,55.34
2018-04-11T17:16:29.605Z,55.35
2018-04-11T17:18:57.109Z,55.95
2018-04-11T17:21:36.606Z,55.59
2018-04-11T17:24:15.975Z,56.40
2018-04-11T17:26:55.412Z,56.48
2018-04-11T17:29:34.770Z,56.16
2018-04-11T17:32:02.310Z,57.39
2018-04-11T17:34:29.788Z,57.87
2018-04-11T17:36:57.822Z,58.25
2018-04-11T17:39:25.326Z,59.31
2018-04-11T17:41:52.878Z,58.92
2018-04-11T17:44:20.474Z,59.69
2018-04-11T17:46:47.975Z,60.47
2018-04-11T17:49:15.650Z,60.09
2018-04-11T17:51:43.213Z,59.89
2018-04-11T17:54:10.901Z,60.85
2018-04-11T17:56:39.377Z,61.00
2018-04-11T17:59:06.964Z,61.32
2018-04-11T18:01:34.848Z,61.75
2018-04-11T18:04:02.380Z,61.84
2018-04-11T18:06:30.184Z,61.69
2018-04-11T18:08:58.083Z,63.11
2018-04-11T18:11:25.860Z,63.22
2018-04-11T18:13:53.476Z,63.61
2018-04-11T18:16:21.525Z,63.64
2018-04-11T18:18:49.185Z,64.51
2018-04-11T18:21:17.170Z,65.43
2018-04-11T18:23:45.055Z,64.99
2018-04-11T18:26:13.426Z,65.45
2018-04-11T18:28:41.309Z,65.32
2018-04-11T18:31:09.306Z,65.98
2018-04-11T18:33:38.293Z,67.02
2018-04-11T18:36:06.706Z,67.46
2018-04-11T18:38:35.388Z,67.87
2018-04-11T18:41:04.819Z,68.41
2018-04-11T18:43:34.369Z,68.91
2018-04-11T18:46:03.031Z,69.41
2018-04-11T18:48:32.434Z,69.56
2018-04-11T18:51:01.002Z,69.60
2018-04-11T18:53:29.199Z,69.13
2018-04-11T18:55:57.445Z,68.68
2018-04-11T18:58:26.410Z,68.52
2018-04-11T19:00:55.340Z,68.04
2018-04-11T19:03:23.925Z,68.41
2018-04-11T19:05:52.417Z,68.70
2018-04-11T19:08:20.832Z,69.65
2018-04-11T19:10:49.517Z,70.05
2018-04-11T19:13:18.235Z,70.31
2018-04-11T19:15:47.226Z,70.63
2018-04-11T19:18:16.595Z,70.81
2018-04-11T19:20:45.065Z,70.83
2018-04-11T19:23:13.854Z,70.76
2018-04-11T19:25:42.945Z,70.64
2018-04-11T19:28:12.035Z,70.22
2018-04-11T19:30:40.640Z,69.87
2018-04-11T19:33:09.251Z,70.17
2018-04-11T19:35:38.140Z,69.62
2018-04-11T19:38:06.864Z,70.31
2018-04-11T19:40:36.242Z,70.79
2018-04-11T19:43:05.569Z,70.46
2018-04-11T19:45:34.378Z,70.32
2018-04-11T19:48:03.290Z,70.39
2018-04-11T19:50:32.798Z,70.54
2018-04-11T19:53:01.364Z,70.52
2018-04-11T19:55:29.776Z,70.87
2018-04-11T19:57:58.792Z,71.49
2018-04-11T20:00:27.116Z,71.97
2018-04-11T20:02:55.478Z,71.61
2018-04-11T20:05:24.150Z,71.44
2018-04-11T20:07:53.191Z,71.87
2018-04-11T20:10:21.652Z,71.93
2018-04-11T20:12:50.137Z,72.30
2018-04-11T20:15:18.765Z,71.72
2018-04-11T20:17:48.468Z,72.12
2018-04-11T20:20:17.567Z,72.57
2018-04-11T20:22:45.959Z,72.72
2018-04-11T20:25:13.939Z,73.06
2018-04-11T20:27:42.751Z,73.28
2018-04-11T20:30:10.847Z,73.00
2018-04-11T20:32:38.821Z,73.14
2018-04-11T20:35:06.801Z,73.18
2018-04-11T20:37:34.495Z,73.05
2018-04-11T20:40:02.146Z,72.76
2018-04-11T20:42:29.972Z,72.46
2018-04-11T20:44:57.498Z,72.15
2018-04-11T20:47:24.986Z,71.93
2018-04-11T20:49:52.533Z,71.47
2018-04-11T20:52:20.204Z,71.40
2018-04-11T20:54:47.992Z,71.10
2018-04-11T20:57:15.499Z,71.16
2018-04-11T20:59:42.995Z,71.13
2018-04-11T21:02:10.526Z,71.01
2018-04-11T21:04:38.067Z,70.64
2018-04-11T21:07:05.830Z,70.86
2018-04-11T21:09:33.318Z,70.57
2018-04-11T21:12:00.812Z,70.26
2018-04-11T21:14:28.362Z,70.26
2018-04-11T21:16:55.852Z,69.63
2018-04-11T21:19:23.596Z,69.63
2018-04-11T21:21:51.071Z,69.41
2018-04-11T21:24:18.594Z,69.69
2018-04-11T21:26:46.117Z,70.72
2018-04-11T21:29:13.639Z,69.48
2018-04-11T21:31:41.338Z,70.61
2018-04-11T21:34:08.901Z,72.64
2018-04-11T21:36:36.383Z,70.97
2018-04-11T21:39:03.893Z,72.26
2018-04-11T21:41:31.368Z,72.62
2018-04-11T21:43:58.979Z,73.27
2018-04-11T21:46:26.453Z,73.42
2018-04-11T21:48:53.933Z,73.12
2018-04-11T21:51:21.445Z,73.98
2018-04-11T21:53:48.943Z,73.38
2018-04-11T21:56:16.461Z,73.93
2018-04-11T21:58:44.047Z,74.20
2018-04-11T22:01:11.541Z,75.02
2018-04-11T22:03:39.053Z,75.32
2018-04-11T22:06:06.550Z,74.03
2018-04-11T22:08:34.169Z,73.03
2018-04-11T22:11:01.649Z,73.58
2018-04-11T22:13:29.166Z,74.84
2018-04-11T22:15:56.697Z,75.23
2018-04-11T22:18:24.181Z,75.98
2018-04-11T22:20:51.717Z,76.97
2018-04-11T22:23:19.193Z,76.48
2018-04-11T22:25:46.677Z,76.75
2018-04-11T22:28:14.189Z,76.96
2018-04-11T22:30:41.669Z,76.85
2018-04-11T22:33:09.205Z,77.41
2018-04-11T22:35:36.685Z,77.43
2018-04-11T22:38:04.160Z,77.78
2018-04-11T22:40:31.677Z,77.52
2018-04-11T22:42:59.151Z,77.18
2018-04-11T22:45:27.094Z,77.30
2018-04-11T22:47:54.569Z,77.33
2018-04-11T22:50:22.131Z,76.89
2018-04-11T22:52:49.653Z,77.34
2018-04-11T22:55:17.125Z,78.17
2018-04-11T22:57:44.668Z,77.73
2018-04-11T23:00:12.159Z,77.69
2018-04-11T23:02:39.653Z,78.22
2018-04-11T23:05:07.184Z,78.36
2018-04-11T23:07:34.657Z,78.15
2018-04-11T23:10:02.320Z,77.73
2018-04-11T23:12:29.875Z,78.08
2018-04-11T23:14:57.357Z,78.68
2018-04-11T23:17:24.873Z,79.37
2018-04-11T23:19:52.361Z,79.66
2018-04-11T23:22:19.877Z,78.59
2018-04-11T23:24:47.375Z,78.92
2018-04-11T23:27:14.853Z,79.39
2018-04-11T23:29:42.358Z,79.33
2018-04-11T23:32:09.845Z,79.72
2018-04-11T23:34:37.681Z,80.02
2018-04-11T23:37:05.185Z,79.85
2018-04-11T23:39:32.664Z,79.98
2018-04-11T23:42:00.177Z,81.31
2018-04-11T23:44:27.673Z,80.29
2018-04-11T23:46:55.192Z,80.01
2018-04-11T23:49:22.669Z,78.83
2018-04-11T23:51:50.149Z,78.62
2018-04-11T23:54:17.653Z,78.89
2018-04-11T23:56:45.131Z,77.85
2018-04-11T23:59:12.898Z,77.10
